sensor_id;sensor_type;location;lat;lon;timestamp;P1;durP1;ratioP1;P2;durP2;ratioP2
45540;SDS011;31265;49.680;8.608;2022-11-20T00:01:41;11.10;;;5.63;;
45540;SDS011;31265;49.680;8.608;2022-11-20T00:04:10;11.70;;;4.55;;
45540;SDS011;31265;49.680;8.608;2022-11-20T00:06:38;6.75;;;3.30;;
45540;SDS011;31265;49.680;8.608;2022-11-20T00:09:09;9.02;;;4.28;;
45540;SDS011;31265;49.680;8.608;2022-11-20T00:11:37;6.72;;;3.28;;
45540;SDS011;31265;49.680;8.608;2022-11-20T00:14:08;10.80;;;3.72;;
45540;SDS011;31265;49.680;8.608;2022-11-20T00:16:39;12.23;;;4.65;;
45540;SDS011;31265;49.680;8.608;2022-11-20T00:19:07;10.85;;;5.05;;
45540;SDS011;31265;49.680;8.608;2022-11-20T00:21:36;10.88;;;4.50;;
45540;SDS011;31265;49.680;8.608;2022-11-20T00:24:08;12.52;;;3.65;;
45540;SDS011;31265;49.680;8.608;2022-11-20T00:26:41;8.18;;;3.42;;
45540;SDS011;31265;49.680;8.608;2022-11-20T00:29:09;10.15;;;4.28;;
45540;SDS011;31265;49.680;8.608;2022-11-20T00:31:40;8.48;;;4.10;;
45540;SDS011;31265;49.680;8.608;2022-11-20T00:36:39;8.20;;;2.90;;
45540;SDS011;31265;49.680;8.608;2022-11-20T00:39:09;8.85;;;3.53;;
45540;SDS011;31265;49.680;8.608;2022-11-20T00:41:43;10.07;;;4.07;;
45540;SDS011;31265;49.680;8.608;2022-11-20T00:44:14;8.25;;;3.60;;
45540;SDS011;31265;49.680;8.608;2022-11-20T00:46:44;8.80;;;3.42;;
45540;SDS011;31265;49.680;8.608;2022-11-20T00:49:12;7.47;;;3.63;;
45540;SDS011;31265;49.680;8.608;2022-11-20T00:51:41;8.05;;;3.90;;
45540;SDS011;31265;49.680;8.608;2022-11-20T00:54:09;8.88;;;4.00;;
45540;SDS011;31265;49.680;8.608;2022-11-20T00:56:38;10.05;;;5.03;;
45540;SDS011;31265;49.680;8.608;2022-11-20T00:59:08;15.68;;;4.95;;
45540;SDS011;31265;49.680;8.608;2022-11-20T01:01:37;10.80;;;4.55;;
45540;SDS011;31265;49.680;8.608;2022-11-20T01:04:07;9.60;;;4.70;;
45540;SDS011;31265;49.680;8.608;2022-11-20T01:06:36;10.45;;;4.32;;
45540;SDS011;31265;49.680;8.608;2022-11-20T01:09:09;9.05;;;4.28;;
45540;SDS011;31265;49.680;8.608;2022-11-20T01:11:40;11.60;;;6.00;;
45540;SDS011;31265;49.680;8.608;2022-11-20T01:14:11;10.95;;;5.05;;
45540;SDS011;31265;49.680;8.608;2022-11-20T01:16:43;8.43;;;4.45;;
45540;SDS011;31265;49.680;8.608;2022-11-20T01:19:19;16.38;;;6.15;;
45540;SDS011;31265;49.680;8.608;2022-11-20T01:21:51;8.65;;;3.38;;
45540;SDS011;31265;49.680;8.608;2022-11-20T01:24:21;13.43;;;4.72;;
45540;SDS011;31265;49.680;8.608;2022-11-20T01:26:50;10.50;;;4.72;;
45540;SDS011;31265;49.680;8.608;2022-11-20T01:29:20;10.70;;;4.22;;
45540;SDS011;31265;49.680;8.608;2022-11-20T01:31:53;10.55;;;4.78;;
45540;SDS011;31265;49.680;8.608;2022-11-20T01:34:23;9.02;;;3.97;;
45540;SDS011;31265;49.680;8.608;2022-11-20T01:36:52;9.73;;;4.25;;
45540;SDS011;31265;49.680;8.608;2022-11-20T01:39:21;7.85;;;3.80;;
45540;SDS011;31265;49.680;8.608;2022-11-20T01:41:51;10.77;;;4.70;;
45540;SDS011;31265;49.680;8.608;2022-11-20T01:44:43;13.15;;;4.65;;
45540;SDS011;31265;49.680;8.608;2022-11-20T01:47:16;9.98;;;5.00;;
45540;SDS011;31265;49.680;8.608;2022-11-20T01:49:52;9.07;;;4.28;;
45540;SDS011;31265;49.680;8.608;2022-11-20T01:52:26;9.98;;;4.90;;
45540;SDS011;31265;49.680;8.608;2022-11-20T01:55:04;14.43;;;5.07;;
45540;SDS011;31265;49.680;8.608;2022-11-20T01:57:34;11.32;;;4.53;;
45540;SDS011;31265;49.680;8.608;2022-11-20T02:02:43;8.60;;;3.30;;
45540;SDS011;31265;49.680;8.608;2022-11-20T02:05:19;8.18;;;3.92;;
45540;SDS011;31265;49.680;8.608;2022-11-20T02:07:53;8.90;;;3.70;;
45540;SDS011;31265;49.680;8.608;2022-11-20T02:10:26;8.35;;;3.97;;
45540;SDS011;31265;49.680;8.608;2022-11-20T02:15:42;9.60;;;5.45;;
45540;SDS011;31265;49.680;8.608;2022-11-20T02:20:44;7.82;;;4.15;;
45540;SDS011;31265;49.680;8.608;2022-11-20T02:23:16;14.32;;;4.93;;
45540;SDS011;31265;49.680;8.608;2022-11-20T02:25:52;10.40;;;4.75;;
45540;SDS011;31265;49.680;8.608;2022-11-20T02:28:23;11.30;;;3.85;;
45540;SDS011;31265;49.680;8.608;2022-11-20T02:30:53;8.23;;;3.67;;
45540;SDS011;31265;49.680;8.608;2022-11-20T02:33:22;10.57;;;4.10;;
45540;SDS011;31265;49.680;8.608;2022-11-20T02:35:51;13.60;;;5.78;;
45540;SDS011;31265;49.680;8.608;2022-11-20T02:38:22;9.80;;;4.78;;
45540;SDS011;31265;49.680;8.608;2022-11-20T02:40:55;11.35;;;4.53;;
45540;SDS011;31265;49.680;8.608;2022-11-20T02:43:26;10.50;;;4.53;;
45540;SDS011;31265;49.680;8.608;2022-11-20T02:45:58;9.98;;;4.50;;
45540;SDS011;31265;49.680;8.608;2022-11-20T02:48:30;10.40;;;4.47;;
45540;SDS011;31265;49.680;8.608;2022-11-20T02:51:09;9.85;;;4.60;;
45540;SDS011;31265;49.680;8.608;2022-11-20T02:53:41;10.25;;;3.33;;
45540;SDS011;31265;49.680;8.608;2022-11-20T02:56:14;7.32;;;4.03;;
45540;SDS011;31265;49.680;8.608;2022-11-20T02:58:43;8.48;;;3.50;;
45540;SDS011;31265;49.680;8.608;2022-11-20T03:01:12;8.65;;;3.92;;
45540;SDS011;31265;49.680;8.608;2022-11-20T03:03:41;13.30;;;4.85;;
45540;SDS011;31265;49.680;8.608;2022-11-20T03:06:16;8.25;;;4.93;;
45540;SDS011;31265;49.680;8.608;2022-11-20T03:08:44;7.88;;;4.10;;
45540;SDS011;31265;49.680;8.608;2022-11-20T03:11:17;8.15;;;3.58;;
45540;SDS011;31265;49.680;8.608;2022-11-20T03:13:49;7.97;;;4.40;;
45540;SDS011;31265;49.680;8.608;2022-11-20T03:16:18;8.02;;;3.83;;
45540;SDS011;31265;49.680;8.608;2022-11-20T03:18:49;7.68;;;4.00;;
45540;SDS011;31265;49.680;8.608;2022-11-20T03:21:19;6.75;;;3.33;;
45540;SDS011;31265;49.680;8.608;2022-11-20T03:23:49;7.10;;;3.28;;
45540;SDS011;31265;49.680;8.608;2022-11-20T03:26:23;7.53;;;4.35;;
45540;SDS011;31265;49.680;8.608;2022-11-20T03:28:56;7.90;;;3.38;;
45540;SDS011;31265;49.680;8.608;2022-11-20T03:31:27;7.82;;;4.00;;
45540;SDS011;31265;49.680;8.608;2022-11-20T03:33:59;8.50;;;3.20;;
45540;SDS011;31265;49.680;8.608;2022-11-20T03:36:30;11.00;;;4.75;;
45540;SDS011;31265;49.680;8.608;2022-11-20T03:38:59;11.43;;;4.07;;
45540;SDS011;31265;49.680;8.608;2022-11-20T03:41:30;13.15;;;4.15;;
45540;SDS011;31265;49.680;8.608;2022-11-20T03:44:05;9.40;;;5.15;;
45540;SDS011;31265;49.680;8.608;2022-11-20T03:46:35;11.65;;;6.28;;
45540;SDS011;31265;49.680;8.608;2022-11-20T03:49:05;12.90;;;6.68;;
45540;SDS011;31265;49.680;8.608;2022-11-20T03:51:39;9.40;;;5.45;;
45540;SDS011;31265;49.680;8.608;2022-11-20T03:54:07;12.82;;;7.28;;
45540;SDS011;31265;49.680;8.608;2022-11-20T03:56:43;15.43;;;6.38;;
45540;SDS011;31265;49.680;8.608;2022-11-20T03:59:11;14.23;;;6.35;;
45540;SDS011;31265;49.680;8.608;2022-11-20T04:01:40;12.18;;;5.18;;
45540;SDS011;31265;49.680;8.608;2022-11-20T04:04:16;11.90;;;5.45;;
45540;SDS011;31265;49.680;8.608;2022-11-20T04:06:44;16.15;;;5.95;;
45540;SDS011;31265;49.680;8.608;2022-11-20T04:11:44;10.25;;;4.57;;
45540;SDS011;31265;49.680;8.608;2022-11-20T04:14:15;9.95;;;4.28;;
45540;SDS011;31265;49.680;8.608;2022-11-20T04:16:44;11.07;;;4.45;;
45540;SDS011;31265;49.680;8.608;2022-11-20T04:19:18;13.43;;;5.20;;
45540;SDS011;31265;49.680;8.608;2022-11-20T04:21:47;12.65;;;5.07;;
45540;SDS011;31265;49.680;8.608;2022-11-20T04:24:16;10.98;;;4.82;;
45540;SDS011;31265;49.680;8.608;2022-11-20T04:26:45;14.63;;;5.95;;
45540;SDS011;31265;49.680;8.608;2022-11-20T04:29:16;10.00;;;4.93;;
45540;SDS011;31265;49.680;8.608;2022-11-20T04:31:45;10.65;;;4.85;;
45540;SDS011;31265;49.680;8.608;2022-11-20T04:34:13;10.60;;;4.50;;
45540;SDS011;31265;49.680;8.608;2022-11-20T04:36:42;11.68;;;5.30;;
45540;SDS011;31265;49.680;8.608;2022-11-20T04:39:12;11.65;;;5.18;;
45540;SDS011;31265;49.680;8.608;2022-11-20T04:41:41;13.75;;;4.97;;
45540;SDS011;31265;49.680;8.608;2022-11-20T04:44:12;12.13;;;5.15;;
45540;SDS011;31265;49.680;8.608;2022-11-20T04:46:41;8.05;;;3.65;;
45540;SDS011;31265;49.680;8.608;2022-11-20T04:49:10;10.35;;;5.57;;
45540;SDS011;31265;49.680;8.608;2022-11-20T04:51:39;11.73;;;5.18;;
45540;SDS011;31265;49.680;8.608;2022-11-20T04:54:11;10.20;;;4.60;;
45540;SDS011;31265;49.680;8.608;2022-11-20T04:56:42;14.57;;;5.20;;
45540;SDS011;31265;49.680;8.608;2022-11-20T04:59:13;12.45;;;4.15;;
45540;SDS011;31265;49.680;8.608;2022-11-20T05:01:42;11.77;;;4.97;;
45540;SDS011;31265;49.680;8.608;2022-11-20T05:04:11;10.45;;;4.35;;
45540;SDS011;31265;49.680;8.608;2022-11-20T05:06:39;10.02;;;4.50;;
45540;SDS011;31265;49.680;8.608;2022-11-20T05:09:09;10.70;;;4.80;;
45540;SDS011;31265;49.680;8.608;2022-11-20T05:11:37;11.02;;;5.30;;
45540;SDS011;31265;49.680;8.608;2022-11-20T05:14:06;10.93;;;5.40;;
45540;SDS011;31265;49.680;8.608;2022-11-20T05:16:38;7.90;;;3.58;;
45540;SDS011;31265;49.680;8.608;2022-11-20T05:19:08;8.75;;;4.38;;
45540;SDS011;31265;49.680;8.608;2022-11-20T05:24:08;9.07;;;3.50;;
45540;SDS011;31265;49.680;8.608;2022-11-20T05:26:36;13.80;;;4.85;;
45540;SDS011;31265;49.680;8.608;2022-11-20T05:29:05;12.68;;;5.18;;
45540;SDS011;31265;49.680;8.608;2022-11-20T05:31:33;12.13;;;4.43;;
45540;SDS011;31265;49.680;8.608;2022-11-20T05:34:05;10.40;;;4.85;;
45540;SDS011;31265;49.680;8.608;2022-11-20T05:36:34;9.73;;;4.75;;
45540;SDS011;31265;49.680;8.608;2022-11-20T05:39:04;10.82;;;4.55;;
45540;SDS011;31265;49.680;8.608;2022-11-20T05:41:33;8.48;;;4.03;;
45540;SDS011;31265;49.680;8.608;2022-11-20T05:44:03;16.23;;;3.20;;
45540;SDS011;31265;49.680;8.608;2022-11-20T05:46:32;15.37;;;5.53;;
45540;SDS011;31265;49.680;8.608;2022-11-20T05:49:00;10.38;;;4.68;;
45540;SDS011;31265;49.680;8.608;2022-11-20T05:51:32;13.35;;;3.65;;
45540;SDS011;31265;49.680;8.608;2022-11-20T05:54:01;10.80;;;3.95;;
45540;SDS011;31265;49.680;8.608;2022-11-20T05:56:29;10.77;;;4.03;;
45540;SDS011;31265;49.680;8.608;2022-11-20T05:59:00;18.52;;;5.55;;
45540;SDS011;31265;49.680;8.608;2022-11-20T06:01:28;12.20;;;5.15;;
45540;SDS011;31265;49.680;8.608;2022-11-20T06:03:58;9.95;;;4.38;;
45540;SDS011;31265;49.680;8.608;2022-11-20T06:06:27;8.85;;;3.92;;
45540;SDS011;31265;49.680;8.608;2022-11-20T06:08:57;12.67;;;4.17;;
45540;SDS011;31265;49.680;8.608;2022-11-20T06:11:26;13.05;;;4.43;;
45540;SDS011;31265;49.680;8.608;2022-11-20T06:13:57;8.50;;;3.85;;
45540;SDS011;31265;49.680;8.608;2022-11-20T06:16:25;8.48;;;3.67;;
45540;SDS011;31265;49.680;8.608;2022-11-20T06:18:54;13.68;;;5.53;;
45540;SDS011;31265;49.680;8.608;2022-11-20T06:21:22;11.52;;;4.82;;
45540;SDS011;31265;49.680;8.608;2022-11-20T06:23:51;11.52;;;5.88;;
45540;SDS011;31265;49.680;8.608;2022-11-20T06:28:53;9.10;;;4.30;;
45540;SDS011;31265;49.680;8.608;2022-11-20T06:31:24;14.20;;;6.15;;
45540;SDS011;31265;49.680;8.608;2022-11-20T06:33:54;16.55;;;4.47;;
45540;SDS011;31265;49.680;8.608;2022-11-20T06:36:23;14.75;;;4.75;;
45540;SDS011;31265;49.680;8.608;2022-11-20T06:38:51;11.18;;;5.43;;
45540;SDS011;31265;49.680;8.608;2022-11-20T06:41:20;8.63;;;4.80;;
45540;SDS011;31265;49.680;8.608;2022-11-20T06:43:50;13.60;;;5.50;;
45540;SDS011;31265;49.680;8.608;2022-11-20T06:46:20;8.93;;;5.03;;
45540;SDS011;31265;49.680;8.608;2022-11-20T06:48:53;11.82;;;5.53;;
45540;SDS011;31265;49.680;8.608;2022-11-20T06:51:22;15.90;;;4.80;;
45540;SDS011;31265;49.680;8.608;2022-11-20T06:53:51;9.82;;;4.88;;
45540;SDS011;31265;49.680;8.608;2022-11-20T06:56:22;9.80;;;4.65;;
45540;SDS011;31265;49.680;8.608;2022-11-20T06:58:55;12.68;;;5.22;;
45540;SDS011;31265;49.680;8.608;2022-11-20T07:01:23;12.65;;;4.68;;
45540;SDS011;31265;49.680;8.608;2022-11-20T07:03:52;13.65;;;6.25;;
45540;SDS011;31265;49.680;8.608;2022-11-20T07:06:21;12.25;;;4.97;;
45540;SDS011;31265;49.680;8.608;2022-11-20T07:08:50;16.83;;;5.72;;
45540;SDS011;31265;49.680;8.608;2022-11-20T07:11:20;10.88;;;4.68;;
45540;SDS011;31265;49.680;8.608;2022-11-20T07:13:48;8.30;;;3.85;;
45540;SDS011;31265;49.680;8.608;2022-11-20T07:16:18;10.65;;;4.85;;
45540;SDS011;31265;49.680;8.608;2022-11-20T07:18:49;12.60;;;5.15;;
45540;SDS011;31265;49.680;8.608;2022-11-20T07:21:18;11.95;;;4.97;;
45540;SDS011;31265;49.680;8.608;2022-11-20T07:23:47;10.50;;;3.92;;
45540;SDS011;31265;49.680;8.608;2022-11-20T07:26:16;13.98;;;5.72;;
45540;SDS011;31265;49.680;8.608;2022-11-20T07:28:45;11.82;;;4.72;;
45540;SDS011;31265;49.680;8.608;2022-11-20T07:31:19;13.70;;;4.57;;
45540;SDS011;31265;49.680;8.608;2022-11-20T07:33:47;11.25;;;4.50;;
45540;SDS011;31265;49.680;8.608;2022-11-20T07:36:15;12.25;;;6.05;;
45540;SDS011;31265;49.680;8.608;2022-11-20T07:38:46;11.57;;;5.85;;
45540;SDS011;31265;49.680;8.608;2022-11-20T07:41:15;11.25;;;4.88;;
45540;SDS011;31265;49.680;8.608;2022-11-20T07:43:46;14.60;;;6.22;;
45540;SDS011;31265;49.680;8.608;2022-11-20T07:46:15;10.20;;;4.03;;
45540;SDS011;31265;49.680;8.608;2022-11-20T07:48:45;12.60;;;5.28;;
45540;SDS011;31265;49.680;8.608;2022-11-20T07:51:17;13.45;;;5.95;;
45540;SDS011;31265;49.680;8.608;2022-11-20T07:53:50;14.43;;;5.75;;
45540;SDS011;31265;49.680;8.608;2022-11-20T07:56:19;13.43;;;4.65;;
45540;SDS011;31265;49.680;8.608;2022-11-20T07:58:48;9.13;;;4.85;;
45540;SDS011;31265;49.680;8.608;2022-11-20T08:01:19;11.27;;;5.43;;
45540;SDS011;31265;49.680;8.608;2022-11-20T08:03:55;9.65;;;4.63;;
45540;SDS011;31265;49.680;8.608;2022-11-20T08:08:51;17.25;;;6.45;;
45540;SDS011;31265;49.680;8.608;2022-11-20T08:11:20;13.80;;;4.93;;
45540;SDS011;31265;49.680;8.608;2022-11-20T08:14:07;17.55;;;7.15;;
45540;SDS011;31265;49.680;8.608;2022-11-20T08:16:44;18.55;;;7.28;;
45540;SDS011;31265;49.680;8.608;2022-11-20T08:19:16;15.80;;;7.40;;
45540;SDS011;31265;49.680;8.608;2022-11-20T08:21:50;15.27;;;7.20;;
45540;SDS011;31265;49.680;8.608;2022-11-20T08:24:21;15.82;;;6.00;;
45540;SDS011;31265;49.680;8.608;2022-11-20T08:26:50;16.65;;;7.72;;
45540;SDS011;31265;49.680;8.608;2022-11-20T08:29:21;17.40;;;6.15;;
45540;SDS011;31265;49.680;8.608;2022-11-20T08:31:51;16.02;;;7.35;;
45540;SDS011;31265;49.680;8.608;2022-11-20T08:34:21;16.10;;;7.53;;
45540;SDS011;31265;49.680;8.608;2022-11-20T08:36:49;20.10;;;6.80;;
45540;SDS011;31265;49.680;8.608;2022-11-20T08:39:19;17.80;;;7.00;;
45540;SDS011;31265;49.680;8.608;2022-11-20T08:41:48;16.67;;;7.50;;
45540;SDS011;31265;49.680;8.608;2022-11-20T08:44:16;16.90;;;7.40;;
45540;SDS011;31265;49.680;8.608;2022-11-20T08:46:45;20.63;;;7.40;;
45540;SDS011;31265;49.680;8.608;2022-11-20T08:49:14;22.02;;;8.23;;
45540;SDS011;31265;49.680;8.608;2022-11-20T08:51:44;20.73;;;7.60;;
45540;SDS011;31265;49.680;8.608;2022-11-20T08:54:14;19.58;;;7.85;;
45540;SDS011;31265;49.680;8.608;2022-11-20T08:56:48;17.58;;;7.22;;
45540;SDS011;31265;49.680;8.608;2022-11-20T08:59:17;21.63;;;9.13;;
45540;SDS011;31265;49.680;8.608;2022-11-20T09:02:05;17.65;;;8.55;;
45540;SDS011;31265;49.680;8.608;2022-11-20T09:04:33;16.65;;;7.35;;
45540;SDS011;31265;49.680;8.608;2022-11-20T09:07:04;19.85;;;7.93;;
45540;SDS011;31265;49.680;8.608;2022-11-20T09:09:33;16.73;;;7.85;;
45540;SDS011;31265;49.680;8.608;2022-11-20T09:12:01;20.75;;;7.47;;
45540;SDS011;31265;49.680;8.608;2022-11-20T09:14:29;16.27;;;7.55;;
45540;SDS011;31265;49.680;8.608;2022-11-20T09:17:00;19.70;;;6.88;;
45540;SDS011;31265;49.680;8.608;2022-11-20T09:19:29;15.10;;;6.03;;
45540;SDS011;31265;49.680;8.608;2022-11-20T09:22:02;19.50;;;7.32;;
45540;SDS011;31265;49.680;8.608;2022-11-20T09:24:34;17.42;;;6.13;;
45540;SDS011;31265;49.680;8.608;2022-11-20T09:27:03;11.35;;;6.07;;
45540;SDS011;31265;49.680;8.608;2022-11-20T09:29:33;17.08;;;6.90;;
45540;SDS011;31265;49.680;8.608;2022-11-20T09:32:02;22.17;;;7.13;;
45540;SDS011;31265;49.680;8.608;2022-11-20T09:34:31;15.45;;;7.15;;
45540;SDS011;31265;49.680;8.608;2022-11-20T09:37:00;14.83;;;6.43;;
45540;SDS011;31265;49.680;8.608;2022-11-20T09:39:35;15.45;;;6.72;;
45540;SDS011;31265;49.680;8.608;2022-11-20T09:45:06;16.60;;;7.35;;
45540;SDS011;31265;49.680;8.608;2022-11-20T09:48:18;13.68;;;6.60;;
45540;SDS011;31265;49.680;8.608;2022-11-20T09:51:05;20.45;;;7.05;;
45540;SDS011;31265;49.680;8.608;2022-11-20T09:53:45;16.00;;;6.82;;
45540;SDS011;31265;49.680;8.608;2022-11-20T09:56:24;17.95;;;6.05;;
45540;SDS011;31265;49.680;8.608;2022-11-20T09:58:57;23.02;;;7.40;;
45540;SDS011;31265;49.680;8.608;2022-11-20T10:01:31;21.10;;;7.00;;
45540;SDS011;31265;49.680;8.608;2022-11-20T10:04:04;21.88;;;7.00;;
45540;SDS011;31265;49.680;8.608;2022-11-20T10:06:39;18.30;;;7.22;;
45540;SDS011;31265;49.680;8.608;2022-11-20T10:09:22;18.25;;;7.78;;
45540;SDS011;31265;49.680;8.608;2022-11-20T10:12:05;17.60;;;7.00;;
45540;SDS011;31265;49.680;8.608;2022-11-20T10:14:52;15.70;;;6.40;;
45540;SDS011;31265;49.680;8.608;2022-11-20T10:17:34;15.23;;;7.85;;
45540;SDS011;31265;49.680;8.608;2022-11-20T10:20:20;20.55;;;7.53;;
45540;SDS011;31265;49.680;8.608;2022-11-20T10:23:03;20.35;;;8.25;;
45540;SDS011;31265;49.680;8.608;2022-11-20T10:25:53;17.10;;;7.32;;
45540;SDS011;31265;49.680;8.608;2022-11-20T10:28:46;17.15;;;7.55;;
45540;SDS011;31265;49.680;8.608;2022-11-20T10:31:29;18.70;;;7.05;;
45540;SDS011;31265;49.680;8.608;2022-11-20T10:34:02;16.50;;;6.15;;
45540;SDS011;31265;49.680;8.608;2022-11-20T10:36:38;18.25;;;8.15;;
45540;SDS011;31265;49.680;8.608;2022-11-20T10:39:16;16.75;;;7.20;;
45540;SDS011;31265;49.680;8.608;2022-11-20T10:41:50;16.60;;;6.30;;
45540;SDS011;31265;49.680;8.608;2022-11-20T10:44:26;15.00;;;7.22;;
45540;SDS011;31265;49.680;8.608;2022-11-20T10:47:18;17.88;;;7.22;;
45540;SDS011;31265;49.680;8.608;2022-11-20T10:49:48;12.27;;;5.38;;
45540;SDS011;31265;49.680;8.608;2022-11-20T10:52:21;15.75;;;7.00;;
45540;SDS011;31265;49.680;8.608;2022-11-20T10:54:59;18.15;;;6.85;;
45540;SDS011;31265;49.680;8.608;2022-11-20T10:57:38;17.38;;;7.38;;
45540;SDS011;31265;49.680;8.608;2022-11-20T11:00:21;15.63;;;6.10;;
45540;SDS011;31265;49.680;8.608;2022-11-20T11:02:50;15.77;;;7.75;;
45540;SDS011;31265;49.680;8.608;2022-11-20T11:05:22;18.33;;;7.18;;
45540;SDS011;31265;49.680;8.608;2022-11-20T11:07:59;16.48;;;6.53;;
45540;SDS011;31265;49.680;8.608;2022-11-20T11:10:28;15.27;;;6.82;;
45540;SDS011;31265;49.680;8.608;2022-11-20T11:13:04;17.95;;;7.65;;
45540;SDS011;31265;49.680;8.608;2022-11-20T11:15:37;16.27;;;6.40;;
45540;SDS011;31265;49.680;8.608;2022-11-20T11:18:08;18.13;;;5.97;;
45540;SDS011;31265;49.680;8.608;2022-11-20T11:20:37;16.60;;;6.35;;
45540;SDS011;31265;49.680;8.608;2022-11-20T11:23:10;18.60;;;7.28;;
45540;SDS011;31265;49.680;8.608;2022-11-20T11:25:57;20.63;;;7.47;;
45540;SDS011;31265;49.680;8.608;2022-11-20T11:30:57;19.13;;;6.60;;
45540;SDS011;31265;49.680;8.608;2022-11-20T11:33:26;15.50;;;6.20;;
45540;SDS011;31265;49.680;8.608;2022-11-20T11:35:56;15.32;;;7.72;;
45540;SDS011;31265;49.680;8.608;2022-11-20T11:38:30;14.25;;;6.15;;
45540;SDS011;31265;49.680;8.608;2022-11-20T11:41:03;13.68;;;6.68;;
45540;SDS011;31265;49.680;8.608;2022-11-20T11:43:48;13.50;;;5.95;;
45540;SDS011;31265;49.680;8.608;2022-11-20T11:46:39;13.52;;;6.43;;
45540;SDS011;31265;49.680;8.608;2022-11-20T11:49:20;13.73;;;6.45;;
45540;SDS011;31265;49.680;8.608;2022-11-20T11:51:58;14.63;;;6.13;;
45540;SDS011;31265;49.680;8.608;2022-11-20T11:54:33;17.58;;;7.10;;
45540;SDS011;31265;49.680;8.608;2022-11-20T11:57:05;16.25;;;6.32;;
45540;SDS011;31265;49.680;8.608;2022-11-20T11:59:44;12.85;;;5.47;;
45540;SDS011;31265;49.680;8.608;2022-11-20T12:02:25;14.30;;;5.75;;
45540;SDS011;31265;49.680;8.608;2022-11-20T12:05:03;13.50;;;6.07;;
45540;SDS011;31265;49.680;8.608;2022-11-20T12:07:47;12.40;;;5.70;;
45540;SDS011;31265;49.680;8.608;2022-11-20T12:10:32;13.00;;;5.38;;
45540;SDS011;31265;49.680;8.608;2022-11-20T12:13:11;15.20;;;5.80;;
45540;SDS011;31265;49.680;8.608;2022-11-20T12:15:50;10.45;;;4.55;;
45540;SDS011;31265;49.680;8.608;2022-11-20T12:18:24;14.77;;;5.90;;
45540;SDS011;31265;49.680;8.608;2022-11-20T12:20:55;14.00;;;6.32;;
45540;SDS011;31265;49.680;8.608;2022-11-20T12:23:40;11.50;;;5.32;;
45540;SDS011;31265;49.680;8.608;2022-11-20T12:28:58;12.40;;;5.50;;
45540;SDS011;31265;49.680;8.608;2022-11-20T12:31:48;11.52;;;5.53;;
45540;SDS011;31265;49.680;8.608;2022-11-20T12:34:35;12.48;;;5.82;;
45540;SDS011;31265;49.680;8.608;2022-11-20T12:37:41;14.43;;;5.75;;
45540;SDS011;31265;49.680;8.608;2022-11-20T12:40:23;14.35;;;5.90;;
45540;SDS011;31265;49.680;8.608;2022-11-20T12:43:05;15.80;;;7.10;;
45540;SDS011;31265;49.680;8.608;2022-11-20T12:48:58;16.45;;;6.13;;
45540;SDS011;31265;49.680;8.608;2022-11-20T12:51:36;16.63;;;7.05;;
45540;SDS011;31265;49.680;8.608;2022-11-20T12:54:29;19.10;;;7.28;;
45540;SDS011;31265;49.680;8.608;2022-11-20T12:57:15;20.60;;;8.77;;
45540;SDS011;31265;49.680;8.608;2022-11-20T12:59:58;20.27;;;7.78;;
45540;SDS011;31265;49.680;8.608;2022-11-20T13:02:44;19.85;;;7.90;;
45540;SDS011;31265;49.680;8.608;2022-11-20T13:05:30;17.45;;;7.15;;
45540;SDS011;31265;49.680;8.608;2022-11-20T13:08:11;17.85;;;7.68;;
45540;SDS011;31265;49.680;8.608;2022-11-20T13:10:51;17.83;;;7.80;;
45540;SDS011;31265;49.680;8.608;2022-11-20T13:13:29;21.52;;;6.35;;
45540;SDS011;31265;49.680;8.608;2022-11-20T13:16:06;17.88;;;6.88;;
45540;SDS011;31265;49.680;8.608;2022-11-20T13:18:40;16.10;;;6.20;;
45540;SDS011;31265;49.680;8.608;2022-11-20T13:21:16;10.50;;;5.57;;
45540;SDS011;31265;49.680;8.608;2022-11-20T13:23:50;13.73;;;5.80;;
45540;SDS011;31265;49.680;8.608;2022-11-20T13:26:20;11.82;;;6.07;;
45540;SDS011;31265;49.680;8.608;2022-11-20T13:28:59;12.02;;;5.68;;
45540;SDS011;31265;49.680;8.608;2022-11-20T13:31:32;16.23;;;5.57;;
45540;SDS011;31265;49.680;8.608;2022-11-20T13:34:02;13.18;;;5.53;;
45540;SDS011;31265;49.680;8.608;2022-11-20T13:36:35;14.18;;;5.28;;
45540;SDS011;31265;49.680;8.608;2022-11-20T13:39:09;11.25;;;4.90;;
45540;SDS011;31265;49.680;8.608;2022-11-20T13:41:39;14.25;;;5.30;;
45540;SDS011;31265;49.680;8.608;2022-11-20T13:44:12;13.73;;;5.90;;
45540;SDS011;31265;49.680;8.608;2022-11-20T13:46:46;11.95;;;5.63;;
45540;SDS011;31265;49.680;8.608;2022-11-20T13:49:18;12.70;;;5.90;;
45540;SDS011;31265;49.680;8.608;2022-11-20T13:52:03;11.60;;;5.28;;
45540;SDS011;31265;49.680;8.608;2022-11-20T13:55:01;10.60;;;5.40;;
45540;SDS011;31265;49.680;8.608;2022-11-20T13:57:42;13.93;;;5.13;;
45540;SDS011;31265;49.680;8.608;2022-11-20T14:00:23;10.30;;;5.05;;
45540;SDS011;31265;49.680;8.608;2022-11-20T14:02:59;11.23;;;4.95;;
45540;SDS011;31265;49.680;8.608;2022-11-20T14:05:34;10.85;;;4.82;;
45540;SDS011;31265;49.680;8.608;2022-11-20T14:08:05;16.08;;;5.35;;
45540;SDS011;31265;49.680;8.608;2022-11-20T14:10:41;14.13;;;5.38;;
45540;SDS011;31265;49.680;8.608;2022-11-20T14:13:12;10.50;;;4.40;;
45540;SDS011;31265;49.680;8.608;2022-11-20T14:15:46;9.70;;;4.18;;
45540;SDS011;31265;49.680;8.608;2022-11-20T14:18:18;11.93;;;5.68;;
45540;SDS011;31265;49.680;8.608;2022-11-20T14:20:49;13.45;;;5.28;;
45540;SDS011;31265;49.680;8.608;2022-11-20T14:23:23;10.50;;;4.60;;
45540;SDS011;31265;49.680;8.608;2022-11-20T14:25:57;10.90;;;4.00;;
45540;SDS011;31265;49.680;8.608;2022-11-20T14:28:27;9.77;;;3.92;;
45540;SDS011;31265;49.680;8.608;2022-11-20T14:31:02;11.15;;;5.78;;
45540;SDS011;31265;49.680;8.608;2022-11-20T14:33:30;13.57;;;5.20;;
45540;SDS011;31265;49.680;8.608;2022-11-20T14:36:01;12.32;;;5.35;;
45540;SDS011;31265;49.680;8.608;2022-11-20T14:38:31;8.40;;;4.55;;
45540;SDS011;31265;49.680;8.608;2022-11-20T14:41:08;13.82;;;4.20;;
45540;SDS011;31265;49.680;8.608;2022-11-20T14:43:49;12.93;;;4.85;;
45540;SDS011;31265;49.680;8.608;2022-11-20T14:46:23;9.57;;;4.38;;
45540;SDS011;31265;49.680;8.608;2022-11-20T14:48:53;10.25;;;5.43;;
45540;SDS011;31265;49.680;8.608;2022-11-20T14:51:29;13.50;;;4.93;;
45540;SDS011;31265;49.680;8.608;2022-11-20T14:54:09;13.00;;;4.95;;
45540;SDS011;31265;49.680;8.608;2022-11-20T14:57:03;9.82;;;4.82;;
45540;SDS011;31265;49.680;8.608;2022-11-20T14:59:33;8.07;;;4.22;;
45540;SDS011;31265;49.680;8.608;2022-11-20T15:04:34;12.00;;;4.60;;
45540;SDS011;31265;49.680;8.608;2022-11-20T15:07:24;10.38;;;5.05;;
45540;SDS011;31265;49.680;8.608;2022-11-20T15:10:04;11.25;;;4.75;;
45540;SDS011;31265;49.680;8.608;2022-11-20T15:12:40;11.63;;;4.72;;
45540;SDS011;31265;49.680;8.608;2022-11-20T15:15:17;12.77;;;5.20;;
45540;SDS011;31265;49.680;8.608;2022-11-20T15:17:50;14.75;;;6.57;;
45540;SDS011;31265;49.680;8.608;2022-11-20T15:23:36;9.27;;;4.32;;
45540;SDS011;31265;49.680;8.608;2022-11-20T15:26:05;11.80;;;5.18;;
45540;SDS011;31265;49.680;8.608;2022-11-20T15:28:36;16.02;;;5.43;;
45540;SDS011;31265;49.680;8.608;2022-11-20T15:31:09;11.05;;;5.18;;
45540;SDS011;31265;49.680;8.608;2022-11-20T15:33:44;13.70;;;5.13;;
45540;SDS011;31265;49.680;8.608;2022-11-20T15:36:14;8.18;;;4.88;;
45540;SDS011;31265;49.680;8.608;2022-11-20T15:38:44;9.70;;;4.72;;
45540;SDS011;31265;49.680;8.608;2022-11-20T15:41:13;7.13;;;4.32;;
45540;SDS011;31265;49.680;8.608;2022-11-20T15:43:43;14.60;;;4.63;;
45540;SDS011;31265;49.680;8.608;2022-11-20T15:46:13;13.85;;;4.85;;
45540;SDS011;31265;49.680;8.608;2022-11-20T15:48:44;12.02;;;5.57;;
45540;SDS011;31265;49.680;8.608;2022-11-20T15:51:21;8.48;;;4.25;;